sensor_id;sensor_type;location;lat;lon;timestamp;P1;durP1;ratioP1;P2;durP2;ratioP2
75837;SDS011;64480;52.040;113.502;2022-12-18T00:02:35;20.20;;;12.88;;
75837;SDS011;64480;52.040;113.502;2022-12-18T00:05:48;50.58;;;23.63;;
75837;SDS011;64480;52.040;113.502;2022-12-18T00:09:01;49.38;;;20.50;;
75837;SDS011;64480;52.040;113.502;2022-12-18T00:12:05;37.22;;;18.90;;
75837;SDS011;64480;52.040;113.502;2022-12-18T00:15:17;53.47;;;17.95;;
75837;SDS011;64480;52.040;113.502;2022-12-18T00:18:21;23.65;;;12.68;;
75837;SDS011;64480;52.040;113.502;2022-12-18T00:21:26;34.35;;;14.98;;
75837;SDS011;64480;52.040;113.502;2022-12-18T00:24:33;27.02;;;12.95;;
75837;SDS011;64480;52.040;113.502;2022-12-18T00:27:36;51.00;;;20.98;;
75837;SDS011;64480;52.040;113.502;2022-12-18T00:30:43;55.20;;;23.05;;
75837;SDS011;64480;52.040;113.502;2022-12-18T00:34:02;43.65;;;19.85;;
75837;SDS011;64480;52.040;113.502;2022-12-18T00:37:07;56.70;;;20.90;;
75837;SDS011;64480;52.040;113.502;2022-12-18T00:40:24;126.05;;;41.97;;
75837;SDS011;64480;52.040;113.502;2022-12-18T00:43:29;67.15;;;27.85;;
75837;SDS011;64480;52.040;113.502;2022-12-18T00:46:46;72.78;;;30.35;;
75837;SDS011;64480;52.040;113.502;2022-12-18T00:50:04;49.88;;;21.88;;
75837;SDS011;64480;52.040;113.502;2022-12-18T00:53:10;61.58;;;23.85;;
75837;SDS011;64480;52.040;113.502;2022-12-18T00:56:14;87.68;;;29.38;;
75837;SDS011;64480;52.040;113.502;2022-12-18T00:59:30;68.22;;;27.35;;
75837;SDS011;64480;52.040;113.502;2022-12-18T01:02:33;81.50;;;31.95;;
75837;SDS011;64480;52.040;113.502;2022-12-18T01:05:43;83.28;;;31.40;;
75837;SDS011;64480;52.040;113.502;2022-12-18T01:08:48;79.75;;;31.48;;
75837;SDS011;64480;52.040;113.502;2022-12-18T01:12:05;68.30;;;31.02;;
75837;SDS011;64480;52.040;113.502;2022-12-18T01:15:10;62.03;;;27.90;;
75837;SDS011;64480;52.040;113.502;2022-12-18T01:18:17;67.70;;;28.20;;
75837;SDS011;64480;52.040;113.502;2022-12-18T01:21:22;75.38;;;25.63;;
75837;SDS011;64480;52.040;113.502;2022-12-18T01:24:28;55.60;;;29.08;;
75837;SDS011;64480;52.040;113.502;2022-12-18T01:27:33;93.60;;;36.72;;
75837;SDS011;64480;52.040;113.502;2022-12-18T01:30:53;70.10;;;25.02;;
75837;SDS011;64480;52.040;113.502;2022-12-18T01:34:01;57.65;;;28.10;;
75837;SDS011;64480;52.040;113.502;2022-12-18T01:37:15;88.85;;;34.63;;
75837;SDS011;64480;52.040;113.502;2022-12-18T01:40:33;94.70;;;39.38;;
75837;SDS011;64480;52.040;113.502;2022-12-18T01:43:46;57.97;;;21.05;;
75837;SDS011;64480;52.040;113.502;2022-12-18T01:47:05;59.75;;;35.10;;
75837;SDS011;64480;52.040;113.502;2022-12-18T01:50:18;116.43;;;43.50;;
75837;SDS011;64480;52.040;113.502;2022-12-18T01:53:27;112.18;;;46.20;;
75837;SDS011;64480;52.040;113.502;2022-12-18T01:56:45;127.00;;;51.45;;
75837;SDS011;64480;52.040;113.502;2022-12-18T01:59:57;134.38;;;46.83;;
75837;SDS011;64480;52.040;113.502;2022-12-18T02:03:16;51.65;;;22.25;;
75837;SDS011;64480;52.040;113.502;2022-12-18T02:06:34;81.55;;;30.58;;
75837;SDS011;64480;52.040;113.502;2022-12-18T02:10:06;62.00;;;27.88;;
75837;SDS011;64480;52.040;113.502;2022-12-18T02:13:19;34.63;;;19.52;;
75837;SDS011;64480;52.040;113.502;2022-12-18T02:16:45;27.10;;;18.27;;
75837;SDS011;64480;52.040;113.502;2022-12-18T02:20:21;53.83;;;26.45;;
75837;SDS011;64480;52.040;113.502;2022-12-18T02:23:44;55.08;;;27.67;;
75837;SDS011;64480;52.040;113.502;2022-12-18T02:27:09;46.30;;;22.02;;
75837;SDS011;64480;52.040;113.502;2022-12-18T02:30:29;91.63;;;40.85;;
75837;SDS011;64480;52.040;113.502;2022-12-18T02:33:40;71.63;;;35.17;;
75837;SDS011;64480;52.040;113.502;2022-12-18T02:36:57;72.75;;;33.55;;
75837;SDS011;64480;52.040;113.502;2022-12-18T02:40:32;40.30;;;23.23;;
75837;SDS011;64480;52.040;113.502;2022-12-18T02:44:01;62.08;;;29.27;;
75837;SDS011;64480;52.040;113.502;2022-12-18T02:47:30;45.95;;;23.17;;
75837;SDS011;64480;52.040;113.502;2022-12-18T02:50:51;72.88;;;30.92;;
75837;SDS011;64480;52.040;113.502;2022-12-18T03:02:15;66.70;;;35.72;;
75837;SDS011;64480;52.040;113.502;2022-12-18T03:05:50;64.10;;;31.42;;
75837;SDS011;64480;52.040;113.502;2022-12-18T03:09:12;52.28;;;27.10;;
75837;SDS011;64480;52.040;113.502;2022-12-18T03:16:30;88.05;;;40.20;;
75837;SDS011;64480;52.040;113.502;2022-12-18T03:19:51;108.43;;;41.58;;
75837;SDS011;64480;52.040;113.502;2022-12-18T03:23:27;57.80;;;28.58;;
75837;SDS011;64480;52.040;113.502;2022-12-18T03:27:02;67.38;;;25.42;;
75837;SDS011;64480;52.040;113.502;2022-12-18T03:30:15;29.83;;;17.30;;
75837;SDS011;64480;52.040;113.502;2022-12-18T03:33:53;68.38;;;27.35;;
75837;SDS011;64480;52.040;113.502;2022-12-18T03:37:14;25.77;;;16.67;;
75837;SDS011;64480;52.040;113.502;2022-12-18T03:40:19;48.33;;;20.45;;
75837;SDS011;64480;52.040;113.502;2022-12-18T03:43:47;53.17;;;19.88;;
75837;SDS011;64480;52.040;113.502;2022-12-18T03:47:11;89.00;;;32.97;;
75837;SDS011;64480;52.040;113.502;2022-12-18T03:54:04;27.75;;;13.60;;
75837;SDS011;64480;52.040;113.502;2022-12-18T03:57:32;79.10;;;28.52;;
75837;SDS011;64480;52.040;113.502;2022-12-18T04:00:50;47.60;;;22.48;;
75837;SDS011;64480;52.040;113.502;2022-12-18T04:04:10;61.67;;;25.02;;
75837;SDS011;64480;52.040;113.502;2022-12-18T04:07:33;39.92;;;21.13;;
75837;SDS011;64480;52.040;113.502;2022-12-18T04:10:52;18.73;;;12.77;;
75837;SDS011;64480;52.040;113.502;2022-12-18T04:14:11;45.38;;;24.75;;
75837;SDS011;64480;52.040;113.502;2022-12-18T04:17:25;15.80;;;13.07;;
75837;SDS011;64480;52.040;113.502;2022-12-18T04:20:54;54.80;;;25.23;;
75837;SDS011;64480;52.040;113.502;2022-12-18T04:24:44;36.47;;;16.60;;
75837;SDS011;64480;52.040;113.502;2022-12-18T04:28:11;45.78;;;22.27;;
75837;SDS011;64480;52.040;113.502;2022-12-18T04:31:33;36.65;;;17.98;;
75837;SDS011;64480;52.040;113.502;2022-12-18T04:34:50;22.15;;;12.05;;
75837;SDS011;64480;52.040;113.502;2022-12-18T04:38:03;33.30;;;17.40;;
75837;SDS011;64480;52.040;113.502;2022-12-18T04:41:15;31.23;;;18.67;;
75837;SDS011;64480;52.040;113.502;2022-12-18T04:44:22;25.65;;;15.90;;
75837;SDS011;64480;52.040;113.502;2022-12-18T04:47:34;35.35;;;19.25;;
75837;SDS011;64480;52.040;113.502;2022-12-18T04:50:53;29.73;;;13.73;;
75837;SDS011;64480;52.040;113.502;2022-12-18T04:54:01;18.02;;;9.13;;
75837;SDS011;64480;52.040;113.502;2022-12-18T04:57:21;52.65;;;21.52;;
75837;SDS011;64480;52.040;113.502;2022-12-18T05:00:39;20.45;;;12.00;;
75837;SDS011;64480;52.040;113.502;2022-12-18T05:04:03;50.55;;;19.38;;
75837;SDS011;64480;52.040;113.502;2022-12-18T05:07:16;38.05;;;19.45;;
75837;SDS011;64480;52.040;113.502;2022-12-18T05:10:25;21.73;;;13.30;;
75837;SDS011;64480;52.040;113.502;2022-12-18T05:13:39;29.95;;;13.85;;
75837;SDS011;64480;52.040;113.502;2022-12-18T05:16:47;31.15;;;16.60;;
75837;SDS011;64480;52.040;113.502;2022-12-18T05:20:04;45.33;;;20.45;;
75837;SDS011;64480;52.040;113.502;2022-12-18T05:23:37;35.72;;;12.13;;
75837;SDS011;64480;52.040;113.502;2022-12-18T05:26:57;33.65;;;14.88;;
75837;SDS011;64480;52.040;113.502;2022-12-18T05:30:05;20.85;;;11.18;;
75837;SDS011;64480;52.040;113.502;2022-12-18T05:33:24;24.70;;;11.80;;
75837;SDS011;64480;52.040;113.502;2022-12-18T05:36:44;43.70;;;15.40;;
75837;SDS011;64480;52.040;113.502;2022-12-18T05:40:00;51.72;;;24.25;;
75837;SDS011;64480;52.040;113.502;2022-12-18T05:43:20;33.95;;;16.42;;
75837;SDS011;64480;52.040;113.502;2022-12-18T05:49:57;31.48;;;13.73;;
75837;SDS011;64480;52.040;113.502;2022-12-18T05:53:15;32.33;;;16.60;;
75837;SDS011;64480;52.040;113.502;2022-12-18T05:56:39;21.40;;;12.77;;
75837;SDS011;64480;52.040;113.502;2022-12-18T06:00:02;25.15;;;11.68;;
75837;SDS011;64480;52.040;113.502;2022-12-18T06:03:20;29.15;;;16.92;;
75837;SDS011;64480;52.040;113.502;2022-12-18T06:06:37;30.67;;;13.90;;
75837;SDS011;64480;52.040;113.502;2022-12-18T06:09:54;39.85;;;16.63;;
75837;SDS011;64480;52.040;113.502;2022-12-18T06:13:11;21.30;;;15.98;;
75837;SDS011;64480;52.040;113.502;2022-12-18T06:16:16;26.25;;;10.93;;
75837;SDS011;64480;52.040;113.502;2022-12-18T06:19:24;7.20;;;3.80;;
75837;SDS011;64480;52.040;113.502;2022-12-18T06:22:45;14.52;;;6.20;;
75837;SDS011;64480;52.040;113.502;2022-12-18T06:26:10;15.27;;;10.23;;
75837;SDS011;64480;52.040;113.502;2022-12-18T06:29:29;19.30;;;7.78;;
75837;SDS011;64480;52.040;113.502;2022-12-18T06:32:46;14.38;;;8.32;;
75837;SDS011;64480;52.040;113.502;2022-12-18T06:36:09;16.38;;;6.60;;
75837;SDS011;64480;52.040;113.502;2022-12-18T06:39:30;24.33;;;10.95;;
75837;SDS011;64480;52.040;113.502;2022-12-18T06:43:07;22.52;;;10.43;;
75837;SDS011;64480;52.040;113.502;2022-12-18T06:49:44;12.57;;;7.30;;
75837;SDS011;64480;52.040;113.502;2022-12-18T06:53:09;7.60;;;6.78;;
75837;SDS011;64480;52.040;113.502;2022-12-18T06:56:36;21.92;;;9.27;;
75837;SDS011;64480;52.040;113.502;2022-12-18T06:59:39;4.25;;;3.80;;
75837;SDS011;64480;52.040;113.502;2022-12-18T07:02:49;41.33;;;11.55;;
75837;SDS011;64480;52.040;113.502;2022-12-18T07:05:56;29.17;;;12.57;;
75837;SDS011;64480;52.040;113.502;2022-12-18T07:09:00;31.00;;;13.73;;
75837;SDS011;64480;52.040;113.502;2022-12-18T07:12:11;35.60;;;15.75;;
75837;SDS011;64480;52.040;113.502;2022-12-18T07:15:17;53.55;;;17.63;;
75837;SDS011;64480;52.040;113.502;2022-12-18T07:18:33;41.38;;;17.35;;
75837;SDS011;64480;52.040;113.502;2022-12-18T07:21:41;25.38;;;11.60;;
75837;SDS011;64480;52.040;113.502;2022-12-18T07:24:58;43.60;;;14.70;;
75837;SDS011;64480;52.040;113.502;2022-12-18T07:28:20;27.05;;;12.25;;
75837;SDS011;64480;52.040;113.502;2022-12-18T07:31:35;29.33;;;13.23;;
75837;SDS011;64480;52.040;113.502;2022-12-18T07:34:40;37.88;;;22.15;;
75837;SDS011;64480;52.040;113.502;2022-12-18T07:37:59;65.85;;;23.42;;
75837;SDS011;64480;52.040;113.502;2022-12-18T07:41:19;48.92;;;15.48;;
75837;SDS011;64480;52.040;113.502;2022-12-18T07:44:56;33.67;;;14.48;;
75837;SDS011;64480;52.040;113.502;2022-12-18T07:48:22;26.98;;;11.07;;
75837;SDS011;64480;52.040;113.502;2022-12-18T07:51:43;47.63;;;19.23;;
75837;SDS011;64480;52.040;113.502;2022-12-18T07:55:06;18.95;;;12.82;;
75837;SDS011;64480;52.040;113.502;2022-12-18T08:06:10;35.90;;;14.13;;
75837;SDS011;64480;52.040;113.502;2022-12-18T08:09:19;51.50;;;22.40;;
75837;SDS011;64480;52.040;113.502;2022-12-18T08:12:26;29.25;;;16.10;;
75837;SDS011;64480;52.040;113.502;2022-12-18T08:15:46;64.00;;;26.85;;
75837;SDS011;64480;52.040;113.502;2022-12-18T08:18:57;52.63;;;22.27;;
75837;SDS011;64480;52.040;113.502;2022-12-18T08:22:08;54.10;;;19.42;;
75837;SDS011;64480;52.040;113.502;2022-12-18T08:25:14;53.13;;;21.13;;
75837;SDS011;64480;52.040;113.502;2022-12-18T08:28:34;47.95;;;19.33;;
75837;SDS011;64480;52.040;113.502;2022-12-18T08:31:44;47.03;;;21.10;;
75837;SDS011;64480;52.040;113.502;2022-12-18T08:34:57;46.72;;;21.83;;
75837;SDS011;64480;52.040;113.502;2022-12-18T08:38:14;56.55;;;20.58;;
75837;SDS011;64480;52.040;113.502;2022-12-18T08:41:35;34.55;;;17.52;;
75837;SDS011;64480;52.040;113.502;2022-12-18T08:44:52;77.43;;;33.95;;
75837;SDS011;64480;52.040;113.502;2022-12-18T08:48:03;83.25;;;44.10;;
75837;SDS011;64480;52.040;113.502;2022-12-18T08:59:01;91.10;;;37.22;;
75837;SDS011;64480;52.040;113.502;2022-12-18T09:02:19;62.40;;;34.75;;
75837;SDS011;64480;52.040;113.502;2022-12-18T09:05:24;112.13;;;46.45;;
75837;SDS011;64480;52.040;113.502;2022-12-18T09:08:39;111.05;;;39.85;;
75837;SDS011;64480;52.040;113.502;2022-12-18T09:11:44;80.90;;;37.05;;
75837;SDS011;64480;52.040;113.502;2022-12-18T09:15:03;91.60;;;37.45;;
75837;SDS011;64480;52.040;113.502;2022-12-18T09:18:40;65.22;;;29.58;;
75837;SDS011;64480;52.040;113.502;2022-12-18T09:21:56;81.88;;;36.75;;
75837;SDS011;64480;52.040;113.502;2022-12-18T09:25:37;57.22;;;24.88;;
75837;SDS011;64480;52.040;113.502;2022-12-18T09:28:59;93.93;;;34.78;;
75837;SDS011;64480;52.040;113.502;2022-12-18T09:32:17;64.50;;;28.00;;
75837;SDS011;64480;52.040;113.502;2022-12-18T09:36:06;111.32;;;42.38;;
75837;SDS011;64480;52.040;113.502;2022-12-18T09:39:26;87.07;;;36.70;;
75837;SDS011;64480;52.040;113.502;2022-12-18T09:42:38;95.13;;;37.97;;
75837;SDS011;64480;52.040;113.502;2022-12-18T09:45:56;66.38;;;25.67;;
75837;SDS011;64480;52.040;113.502;2022-12-18T09:49:14;54.42;;;21.42;;
75837;SDS011;64480;52.040;113.502;2022-12-18T09:52:37;70.78;;;28.77;;
75837;SDS011;64480;52.040;113.502;2022-12-18T09:55:58;82.43;;;28.85;;
75837;SDS011;64480;52.040;113.502;2022-12-18T09:59:26;49.55;;;22.63;;
75837;SDS011;64480;52.040;113.502;2022-12-18T10:02:43;89.85;;;37.83;;
75837;SDS011;64480;52.040;113.502;2022-12-18T10:06:14;87.47;;;32.03;;
75837;SDS011;64480;52.040;113.502;2022-12-18T10:09:43;67.38;;;33.15;;
75837;SDS011;64480;52.040;113.502;2022-12-18T10:13:44;76.70;;;31.13;;
75837;SDS011;64480;52.040;113.502;2022-12-18T10:17:35;108.00;;;42.60;;
75837;SDS011;64480;52.040;113.502;2022-12-18T10:20:56;61.05;;;29.60;;
75837;SDS011;64480;52.040;113.502;2022-12-18T10:24:16;66.78;;;25.67;;
75837;SDS011;64480;52.040;113.502;2022-12-18T10:27:51;59.45;;;26.02;;
75837;SDS011;64480;52.040;113.502;2022-12-18T10:31:01;64.65;;;25.13;;
75837;SDS011;64480;52.040;113.502;2022-12-18T10:34:27;57.67;;;25.65;;
75837;SDS011;64480;52.040;113.502;2022-12-18T10:38:00;43.10;;;18.73;;
75837;SDS011;64480;52.040;113.502;2022-12-18T10:44:41;34.25;;;17.17;;
75837;SDS011;64480;52.040;113.502;2022-12-18T10:47:49;45.00;;;19.63;;
75837;SDS011;64480;52.040;113.502;2022-12-18T10:50:55;98.30;;;35.50;;
75837;SDS011;64480;52.040;113.502;2022-12-18T10:54:17;52.63;;;24.50;;
75837;SDS011;64480;52.040;113.502;2022-12-18T10:57:38;61.67;;;24.50;;
75837;SDS011;64480;52.040;113.502;2022-12-18T11:00:53;110.65;;;38.65;;
75837;SDS011;64480;52.040;113.502;2022-12-18T11:04:32;106.05;;;44.85;;
75837;SDS011;64480;52.040;113.502;2022-12-18T11:08:03;60.75;;;30.10;;
75837;SDS011;64480;52.040;113.502;2022-12-18T11:11:31;88.85;;;35.30;;
75837;SDS011;64480;52.040;113.502;2022-12-18T11:14:50;64.25;;;27.17;;
75837;SDS011;64480;52.040;113.502;2022-12-18T11:22:23;58.50;;;25.20;;
75837;SDS011;64480;52.040;113.502;2022-12-18T11:26:03;71.82;;;29.23;;
75837;SDS011;64480;52.040;113.502;2022-12-18T11:29:39;86.13;;;32.20;;
75837;SDS011;64480;52.040;113.502;2022-12-18T11:33:26;105.50;;;35.92;;
75837;SDS011;64480;52.040;113.502;2022-12-18T11:36:45;90.57;;;42.97;;
75837;SDS011;64480;52.040;113.502;2022-12-18T11:40:10;123.88;;;42.15;;
75837;SDS011;64480;52.040;113.502;2022-12-18T11:43:55;152.45;;;54.03;;
75837;SDS011;64480;52.040;113.502;2022-12-18T11:47:26;178.27;;;68.68;;
75837;SDS011;64480;52.040;113.502;2022-12-18T11:50:58;181.65;;;70.13;;
75837;SDS011;64480;52.040;113.502;2022-12-18T11:54:12;217.63;;;82.30;;
75837;SDS011;64480;52.040;113.502;2022-12-18T11:57:39;138.75;;;73.15;;
75837;SDS011;64480;52.040;113.502;2022-12-18T12:17:32;207.90;;;99.90;;
75837;SDS011;64480;52.040;113.502;2022-12-18T12:21:08;143.63;;;77.32;;
75837;SDS011;64480;52.040;113.502;2022-12-18T12:24:34;176.40;;;82.80;;
75837;SDS011;64480;52.040;113.502;2022-12-18T12:31:47;182.02;;;77.60;;
75837;SDS011;64480;52.040;113.502;2022-12-18T12:35:23;168.30;;;73.32;;
75837;SDS011;64480;52.040;113.502;2022-12-18T12:39:01;149.00;;;65.93;;
75837;SDS011;64480;52.040;113.502;2022-12-18T12:42:20;238.95;;;96.57;;
75837;SDS011;64480;52.040;113.502;2022-12-18T12:46:11;129.27;;;56.17;;
75837;SDS011;64480;52.040;113.502;2022-12-18T12:49:25;144.68;;;61.72;;
75837;SDS011;64480;52.040;113.502;2022-12-18T12:56:16;132.27;;;60.55;;
75837;SDS011;64480;52.040;113.502;2022-12-18T13:06:33;78.55;;;31.00;;
75837;SDS011;64480;52.040;113.502;2022-12-18T13:13:20;125.60;;;49.88;;
75837;SDS011;64480;52.040;113.502;2022-12-18T13:16:26;63.13;;;29.73;;
75837;SDS011;64480;52.040;113.502;2022-12-18T13:19:43;76.82;;;32.92;;
75837;SDS011;64480;52.040;113.502;2022-12-18T13:22:53;80.38;;;30.10;;
75837;SDS011;64480;52.040;113.502;2022-12-18T13:26:36;149.40;;;54.47;;
75837;SDS011;64480;52.040;113.502;2022-12-18T13:36:28;137.80;;;54.53;;
75837;SDS011;64480;52.040;113.502;2022-12-18T13:39:35;144.68;;;52.92;;
75837;SDS011;64480;52.040;113.502;2022-12-18T13:42:49;106.22;;;45.08;;
75837;SDS011;64480;52.040;113.502;2022-12-18T13:46:27;110.25;;;43.25;;
75837;SDS011;64480;52.040;113.502;2022-12-18T13:49:44;125.90;;;47.38;;
75837;SDS011;64480;52.040;113.502;2022-12-18T13:53:06;126.75;;;53.85;;
75837;SDS011;64480;52.040;113.502;2022-12-18T13:56:24;123.70;;;52.17;;
75837;SDS011;64480;52.040;113.502;2022-12-18T13:59:41;150.52;;;57.67;;
75837;SDS011;64480;52.040;113.502;2022-12-18T14:02:46;186.85;;;63.97;;
75837;SDS011;64480;52.040;113.502;2022-12-18T14:06:01;166.82;;;59.22;;
75837;SDS011;64480;52.040;113.502;2022-12-18T14:09:13;157.50;;;55.15;;
75837;SDS011;64480;52.040;113.502;2022-12-18T14:12:39;134.52;;;61.55;;
75837;SDS011;64480;52.040;113.502;2022-12-18T14:16:05;147.43;;;67.68;;
75837;SDS011;64480;52.040;113.502;2022-12-18T14:19:17;218.40;;;79.88;;
75837;SDS011;64480;52.040;113.502;2022-12-18T14:22:36;158.13;;;63.97;;
75837;SDS011;64480;52.040;113.502;2022-12-18T14:25:45;128.95;;;54.00;;
75837;SDS011;64480;52.040;113.502;2022-12-18T14:32:30;105.70;;;47.47;;
75837;SDS011;64480;52.040;113.502;2022-12-18T14:39:17;164.00;;;62.28;;
75837;SDS011;64480;52.040;113.502;2022-12-18T14:42:29;278.60;;;93.78;;
75837;SDS011;64480;52.040;113.502;2022-12-18T14:45:38;100.95;;;46.45;;
75837;SDS011;64480;52.040;113.502;2022-12-18T14:48:46;150.93;;;56.25;;
75837;SDS011;64480;52.040;113.502;2022-12-18T14:51:56;97.38;;;38.63;;
75837;SDS011;64480;52.040;113.502;2022-12-18T14:55:14;113.10;;;51.17;;
75837;SDS011;64480;52.040;113.502;2022-12-18T14:58:23;122.97;;;60.83;;
75837;SDS011;64480;52.040;113.502;2022-12-18T15:01:47;98.25;;;46.00;;
75837;SDS011;64480;52.040;113.502;2022-12-18T15:08:30;88.82;;;43.50;;
75837;SDS011;64480;52.040;113.502;2022-12-18T15:11:58;80.22;;;44.55;;
75837;SDS011;64480;52.040;113.502;2022-12-18T15:18:42;78.63;;;46.50;;
75837;SDS011;64480;52.040;113.502;2022-12-18T15:21:48;90.72;;;38.00;;
75837;SDS011;64480;52.040;113.502;2022-12-18T15:24:59;88.50;;;39.25;;
75837;SDS011;64480;52.040;113.502;2022-12-18T15:34:33;51.67;;;24.67;;
75837;SDS011;64480;52.040;113.502;2022-12-18T15:37:45;85.70;;;32.42;;
75837;SDS011;64480;52.040;113.502;2022-12-18T15:40:51;148.52;;;64.40;;
75837;SDS011;64480;52.040;113.502;2022-12-18T15:44:00;216.95;;;87.72;;
75837;SDS011;64480;52.040;113.502;2022-12-18T15:47:11;218.43;;;98.38;;
75837;SDS011;64480;52.040;113.502;2022-12-18T15:50:25;210.60;;;98.47;;
75837;SDS011;64480;52.040;113.502;2022-12-18T15:53:31;183.23;;;96.18;;
75837;SDS011;64480;52.040;113.502;2022-12-18T15:56:38;196.98;;;96.88;;
75837;SDS011;64480;52.040;113.502;2022-12-18T16:00:02;188.55;;;84.28;;
75837;SDS011;64480;52.040;113.502;2022-12-18T16:03:13;226.75;;;109.63;;
75837;SDS011;64480;52.040;113.502;2022-12-18T16:06:17;197.05;;;90.03;;
75837;SDS011;64480;52.040;113.502;2022-12-18T16:09:20;211.27;;;102.65;;
75837;SDS011;64480;52.040;113.502;2022-12-18T16:12:29;182.15;;;88.45;;
75837;SDS011;64480;52.040;113.502;2022-12-18T16:15:34;173.13;;;81.40;;
75837;SDS011;64480;52.040;113.502;2022-12-18T16:18:38;220.48;;;91.15;;
75837;SDS011;64480;52.040;113.502;2022-12-18T16:21:45;253.15;;;104.93;;
75837;SDS011;64480;52.040;113.502;2022-12-18T16:24:51;310.98;;;128.18;;
75837;SDS011;64480;52.040;113.502;2022-12-18T16:27:57;352.92;;;140.95;;
75837;SDS011;64480;52.040;113.502;2022-12-18T16:31:04;244.85;;;110.68;;
75837;SDS011;64480;52.040;113.502;2022-12-18T16:34:12;214.60;;;87.22;;
75837;SDS011;64480;52.040;113.502;2022-12-18T16:37:36;306.77;;;125.70;;
75837;SDS011;64480;52.040;113.502;2022-12-18T16:40:41;311.30;;;123.55;;
75837;SDS011;64480;52.040;113.502;2022-12-18T16:44:06;207.55;;;87.65;;
75837;SDS011;64480;52.040;113.502;2022-12-18T16:47:12;204.57;;;84.68;;
75837;SDS011;64480;52.040;113.502;2022-12-18T16:50:18;145.95;;;65.97;;
75837;SDS011;64480;52.040;113.502;2022-12-18T16:53:23;257.10;;;97.55;;
75837;SDS011;64480;52.040;113.502;2022-12-18T16:56:29;153.13;;;69.78;;
75837;SDS011;64480;52.040;113.502;2022-12-18T16:59:35;158.85;;;64.10;;
75837;SDS011;64480;52.040;113.502;2022-12-18T17:02:39;136.80;;;68.38;;
75837;SDS011;64480;52.040;113.502;2022-12-18T17:05:49;128.18;;;55.22;;
75837;SDS011;64480;52.040;113.502;2022-12-18T17:08:55;149.15;;;62.63;;
75837;SDS011;64480;52.040;113.502;2022-12-18T17:12:03;143.00;;;75.97;;
75837;SDS011;64480;52.040;113.502;2022-12-18T17:15:10;94.53;;;41.97;;
75837;SDS011;64480;52.040;113.502;2022-12-18T17:18:15;64.35;;;46.05;;
75837;SDS011;64480;52.040;113.502;2022-12-18T17:21:20;121.57;;;67.45;;
75837;SDS011;64480;52.040;113.502;2022-12-18T17:24:26;162.65;;;64.57;;
75837;SDS011;64480;52.040;113.502;2022-12-18T17:27:35;85.68;;;52.55;;
75837;SDS011;64480;52.040;113.502;2022-12-18T17:30:40;141.75;;;72.53;;
75837;SDS011;64480;52.040;113.502;2022-12-18T17:33:47;130.63;;;61.75;;
75837;SDS011;64480;52.040;113.502;2022-12-18T17:36:52;252.73;;;102.28;;
75837;SDS011;64480;52.040;113.502;2022-12-18T17:39:57;371.15;;;136.32;;
75837;SDS011;64480;52.040;113.502;2022-12-18T17:43:01;240.30;;;92.55;;
75837;SDS011;64480;52.040;113.502;2022-12-18T17:46:07;253.35;;;97.65;;
75837;SDS011;64480;52.040;113.502;2022-12-18T17:49:13;310.02;;;125.45;;
75837;SDS011;64480;52.040;113.502;2022-12-18T17:52:22;366.05;;;130.38;;
75837;SDS011;64480;52.040;113.502;2022-12-18T17:55:33;167.63;;;74.03;;
75837;SDS011;64480;52.040;113.502;2022-12-18T17:58:36;100.85;;;52.45;;
75837;SDS011;64480;52.040;113.502;2022-12-18T18:01:41;113.90;;;59.92;;
75837;SDS011;64480;52.040;113.502;2022-12-18T18:04:47;180.40;;;74.30;;
75837;SDS011;64480;52.040;113.502;2022-12-18T18:07:51;185.48;;;77.20;;
75837;SDS011;64480;52.040;113.502;2022-12-18T18:10:57;195.93;;;82.07;;
75837;SDS011;64480;52.040;113.502;2022-12-18T18:14:24;280.88;;;95.68;;
75837;SDS011;64480;52.040;113.502;2022-12-18T18:17:30;264.05;;;100.10;;
75837;SDS011;64480;52.040;113.502;2022-12-18T18:20:38;254.43;;;97.47;;
75837;SDS011;64480;52.040;113.502;2022-12-18T18:26:49;137.85;;;64.20;;
75837;SDS011;64480;52.040;113.502;2022-12-18T18:29:54;120.03;;;57.08;;
75837;SDS011;64480;52.040;113.502;2022-12-18T18:32:59;113.50;;;45.92;;
75837;SDS011;64480;52.040;113.502;2022-12-18T18:36:09;93.03;;;44.97;;
75837;SDS011;64480;52.040;113.502;2022-12-18T18:39:14;118.55;;;44.35;;
75837;SDS011;64480;52.040;113.502;2022-12-18T18:42:18;85.95;;;36.92;;
75837;SDS011;64480;52.040;113.502;2022-12-18T18:45:25;98.60;;;42.75;;
75837;SDS011;64480;52.040;113.502;2022-12-18T18:48:32;150.80;;;54.40;;
75837;SDS011;64480;52.040;113.502;2022-12-18T18:51:40;63.15;;;33.13;;
75837;SDS011;64480;52.040;113.502;2022-12-18T18:54:45;158.13;;;60.20;;
75837;SDS011;64480;52.040;113.502;2022-12-18T18:58:14;138.00;;;49.03;;
75837;SDS011;64480;52.040;113.502;2022-12-18T19:01:19;201.55;;;73.00;;
75837;SDS011;64480;52.040;113.502;2022-12-18T19:07:34;70.18;;;37.95;;
75837;SDS011;64480;52.040;113.502;2022-12-18T19:10:39;106.15;;;52.97;;
75837;SDS011;64480;52.040;113.502;2022-12-18T19:13:57;121.32;;;55.47;;
75837;SDS011;64480;52.040;113.502;2022-12-18T19:17:02;147.57;;;72.60;;
75837;SDS011;64480;52.040;113.502;2022-12-18T19:20:09;120.05;;;56.60;;
75837;SDS011;64480;52.040;113.502;2022-12-18T19:23:28;157.95;;;61.38;;
75837;SDS011;64480;52.040;113.502;2022-12-18T19:26:33;132.00;;;51.97;;
75837;SDS011;64480;52.040;113.502;2022-12-18T19:29:37;67.45;;;44.22;;
75837;SDS011;64480;52.040;113.502;2022-12-18T19:32:41;119.45;;;52.22;;
75837;SDS011;64480;52.040;113.502;2022-12-18T19:35:47;64.93;;;40.75;;
75837;SDS011;64480;52.040;113.502;2022-12-18T19:38:52;91.00;;;49.30;;
75837;SDS011;64480;52.040;113.502;2022-12-18T19:41:59;131.02;;;50.70;;
75837;SDS011;64480;52.040;113.502;2022-12-18T19:45:03;131.40;;;52.85;;
75837;SDS011;64480;52.040;113.502;2022-12-18T19:48:07;173.15;;;75.20;;
75837;SDS011;64480;52.040;113.502;2022-12-18T19:51:16;101.22;;;51.15;;
75837;SDS011;64480;52.040;113.502;2022-12-18T19:54:24;92.70;;;52.42;;
75837;SDS011;64480;52.040;113.502;2022-12-18T19:57:30;87.75;;;45.15;;
75837;SDS011;64480;52.040;113.502;2022-12-18T20:00:34;117.63;;;51.05;;
75837;SDS011;64480;52.040;113.502;2022-12-18T20:03:44;131.65;;;50.65;;
75837;SDS011;64480;52.040;113.502;2022-12-18T20:06:55;70.43;;;38.78;;
75837;SDS011;64480;52.040;113.502;2022-12-18T20:10:04;112.13;;;46.50;;
75837;SDS011;64480;52.040;113.502;2022-12-18T20:13:10;102.75;;;35.72;;
75837;SDS011;64480;52.040;113.502;2022-12-18T20:16:15;88.93;;;38.90;;
75837;SDS011;64480;52.040;113.502;2022-12-18T20:19:28;32.15;;;18.23;;